• Join FlightAware (Why Join?)
  • Login
  • US Flag 
03:50AM EDT


 

Airport Tracker/Info


-or-


 

Live Flight TrackerFlight Track Log ✈ RPA3247 ✈ 08-May-2013 ✈ KALB - KDCA

Flight Track Log - Related Links

Times and Time Zones

All times are in EDT time to prevent confusion due to time zone crossing. See the RPA3247 flight status page for this flight to view local times or setup timezone preferences in your user account.

Time Position Orientation Groundspeed Altitude Reporting Facility
EDT Latitude Longitude Course Direction KTS MPH feet Rate Location/Type
09:02PM 42.7297 -73.8081 171° South 141 162 1,600  Level Boston Center
09:03PM 42.7131 -73.8078 179° South 139 160 2,300 2,040 Climbing Boston Center
09:04PM 42.6628 -73.8347 202° Southwest 247 284 4,500 2,340 Climbing Boston Center
09:04PM 42.6517 -73.8883 254° West 263 303 6,300 3,300 Climbing Boston Center
09:05PM 42.3927 -74.1176 170° South  Level Estimated
09:05PM 42.6503 -73.9983 269° West 276 318 10,000  Level Boston Center
09:06PM 42.3382 -73.9940 121° Southeast  Level FlightAware Approximate
09:06PM 42.6256 -74.1192 254° West 300 345 13,100  Level Boston Center
09:07PM 42.2505 -74.0755 169° South  Level Estimated
09:07PM 42.5506 -74.1114 176° South 252 290 16,100  Level Boston Center
09:08PM 42.1628 -74.1567 171° South  Level Estimated
09:08PM 42.4639 -74.0528 153° Southeast 280 322 18,800  Level Boston Center
09:09PM 42.3814 -74.0000 155° Southeast 315 362 21,500 1,980 Climbing Boston Center
09:10PM 42.2883 -73.9417 155° Southeast 346 398 22,800 1,560 Climbing Boston Center
09:11PM 42.1911 -73.8747 153° Southeast 374 430 24,700 1,860 Climbing Boston Center
09:12PM 42.0900 -73.8108 155° Southeast 390 449 26,600 1,620 Climbing Boston Center
09:13PM 41.9906 -73.7444 154° Southeast 395 455 28,000 660 Climbing Boston Center
09:14PM 41.8828 -73.6978 162° South 395 455 28,000  Level Boston Center
09:16PM 41.7661 -73.7064 183° South 397 457 28,000  Level Boston Center
09:18PM 41.5144 -73.8714 206° Southwest 428 493 28,000  Level New York Center
09:19PM 41.4083 -73.9494 209° Southwest 434 499 28,000  Level New York Center
09:20PM 41.3042 -74.0272 209° Southwest 439 505 28,000  Level New York Center
09:21PM 41.2000 -74.1050 209° Southwest 439 505 28,000  Level New York Center
09:22PM 41.0956 -74.1822 209° Southwest 439 505 28,000  Level New York Center
09:23PM 40.9767 -74.2644 208° Southwest 439 505 28,000  Level New York Center
09:24PM 40.8722 -74.3414 209° Southwest 439 505 28,000  Level New York Center
09:25PM 40.7739 -74.4264 213° Southwest 439 505 28,000  Level New York Center
09:26PM 40.6969 -74.5511 231° Southwest 432 497 28,000  Level New York Center
09:27PM 40.6242 -74.6728 232° Southwest 432 497 28,000 -360 Level New York Center
09:28PM 40.5450 -74.7967 230° Southwest 438 504 27,300 -900 Descending New York Center
09:29PM 40.4639 -74.9119 227° Southwest 443 510 26,300 -960 Descending New York Center
09:30PM 40.3872 -75.0217 227° Southwest 432 497 25,400 -960 Descending New York Center
09:31PM 40.3181 -75.1453 234° Southwest 427 491 24,400 -1,020 Descending New York Center
09:32PM 40.2608 -75.2778 241° Southwest 427 491 23,500 -960 Descending New York Center
09:33PM 40.1778 -75.3811 224° Southwest 422 486 22,500 -780 Descending New York Center
09:34PM 40.0925 -75.4758 220° Southwest 417 480 22,000 -300 Descending New York Center
09:35PM 40.0136 -75.5764 224° Southwest 406 467 22,000  Level New York Center
09:36PM 39.9422 -75.6906 231° Southwest 406 467 22,000  Level New York Center
09:37PM 39.8731 -75.7939 229° Southwest 414 476 22,000  Level New York Center
09:38PM 39.8017 -75.9022 229° Southwest 414 476 22,000  Level New York Center
09:39PM 39.7261 -76.0128 228° Southwest 414 476 22,000 -120 Level New York Center
09:40PM 39.6542 -76.1233 230° Southwest 414 476 21,800 -1,860 Descending New York Center
09:41PM 39.5667 -76.2500 228° Southwest 392 451 18,300 -3,540 Descending Potomac TRACON
09:42PM 39.5000 -76.3500 229° Southwest 369 425 14,700 -3,360 Descending Potomac TRACON
09:43PM 39.4333 -76.4333 224° Southwest 335 386 11,600 -2,400 Descending Potomac TRACON
09:44PM 39.3500 -76.5000 212° Southwest 321 369 10,000 -840 Descending Potomac TRACON
09:45PM 39.2833 -76.5667 218° Southwest 319 367 10,000  Level Potomac TRACON
09:46PM 39.2167 -76.6167 210° Southwest 281 323 10,000  Level Potomac TRACON
09:47PM 39.1500 -76.6833 218° Southwest 278 320 10,000  Level Potomac TRACON
09:48PM 39.0833 -76.7500 218° Southwest 280 322 10,100 -720 Climbing Potomac TRACON
09:49PM 39.0333 -76.8167 226° Southwest 269 310 8,600 -1,740 Descending Potomac TRACON
09:50PM 39.0333 -76.9167 270° West 277 319 6,700 -1,440 Descending Potomac TRACON
09:51PM 39.0333 -77.0167 270° West 247 284 5,800 -840 Descending Potomac TRACON
09:52PM 39.0500 -77.0833 288° West 205 236 5,100 -480 Descending Potomac TRACON
09:53PM 39.0667 -77.1333 293° West 212 244 4,900 -600 Descending Potomac TRACON
09:54PM 39.0667 -77.2167 270° West 190 219 4,000 -900 Descending Potomac TRACON
09:55PM 39.0167 -77.2167 180° South 177 204 3,100 -480 Descending Potomac TRACON
09:56PM 38.9833 -77.1667 131° Southeast 177 204 3,100  Level Potomac TRACON